Terminal Aerodrome Forecast
Issued by NWS

Home | Current Version | Previous Version | Text Only | Print | Product List | Glossary On
Versions: 1 2 3 4 5 6 7 8 9 10 11 12 13 14 15 16 17 18 19 20 21 22 23 24 25 26
000
FTUS46 KLOX 291450 AAA
TAFLAX
TAF AMD
KLAX 291450Z 2915/3018 00000KT P6SM SCT250
     FM291600 26006KT P6SM SKC
     FM291800 26012KT P6SM SKC
     FM300400 25008KT 5SM BR SKC
     FM300900 VRB03KT 3SM BR BKN005
     FM301300 VRB03KT 5SM BR OVC007
     FM301600 23005KT 6SM HZ SCT010=

USA.gov is the U.S. government's official web portal to all federal, state and local government web resources and services.